Cleveland Burke, OH

2:15 AM EDT on April 29, 2017 (GMT -0400)
Burke Lakefront | | Change Station

Elev 581 ft 41.52 °N, 81.68 °W | Updated 22 minutes ago

Rain
Rain
57 °F
Feels Like 57 °F
N
4
Wind Variable Wind from West

Today
High -- | Low -- °F
--% Chance of Precip.
Yesterday
High -- | Low -- °F
Precip. -- in
Pressure 29.98 in
Visibility 9.0 miles
Clouds Few 4900 ft
Overcast 5500 ft
Dew Point 53 °F
Humidity 87%
Rainfall 0.04 in
Snow Depth Not available.
6:26 AM 8:22 PM
Waxing Crescent, 11% visible
METAR KBKL 290553Z 28003KT 9SM -RA FEW049 OVC055 14/12 A2998 RMK AO2 RAB15 SLP150 P0003 60020 T01390117 10161 20139 53005 $
Pressure 29.98 in
Visibility 9.0 miles
Clouds Few 4900 ft
Overcast 5500 ft
Dew Point 53 °F
Humidity 87%
Rainfall 0.04 in
Snow Depth Not available.
6:26 AM 8:22 PM
Waxing Crescent, 11% visible
METAR KBKL 290553Z 28003KT 9SM -RA FEW049 OVC055 14/12 A2998 RMK AO2 RAB15 SLP150 P0003 60020 T01390117 10161 20139 53005 $

Get Severe Weather Alerts

Thanks for signing up!

Be on the lookout for a verification email in your inbox.

You'll start receiving the daily forecast at 8 AM.

×

10-Day Weather Forecast

Almanac

Astronomy

Apr. 29, 2017 Rise Set
Actual Time
Civil Twilight
Nautical Twilight
Astronomical Twilight
Moon
Length of Visible Light
Length of Day
Tomorrow will be .
, % of the Moon is Illuminated

Today's Extremes

State Highs State Lows

Community

WunderPhotos

WunderBlog® & News

Nearby

Air Quality

  Air Quality AQ Index Pollutant
Not available.

Snow Depth

Station Depth Elevation

Earthquake Activity

City Distance Mag. Time & Date
Minimum magnitude displayed is 2.5.

Coastal Water Temperatures

Place Temperature

Stations

Nearby Weather Stations

Station Location Temp. Windchill Dew Point Humidity Wind Precip. Elev Updated Type
                   

Watches & Warnings

There are currently no watches in effect.